createdAt,value
2016-08-14T00:00:08.200Z,17.8
2016-08-14T00:00:22.310Z,17.7
2016-08-14T00:00:35.693Z,17.8
2016-08-14T00:00:51.337Z,17.8
2016-08-14T00:01:05.449Z,17.9
2016-08-14T00:01:19.564Z,17.9
2016-08-14T00:01:32.970Z,17.9
2016-08-14T00:01:47.828Z,17.9
2016-08-14T00:02:01.945Z,17.8
2016-08-14T00:02:14.583Z,17.8
2016-08-14T00:02:25.789Z,17.8
2016-08-14T00:02:40.663Z,17.8
2016-08-14T00:02:54.789Z,17.7
2016-08-14T00:03:08.160Z,17.6
2016-08-14T00:03:22.274Z,17.6
2016-08-14T00:03:36.382Z,17.5
2016-08-14T00:03:51.250Z,17.6
2016-08-14T00:04:06.116Z,17.5
2016-08-14T00:04:18.750Z,17.6
2016-08-14T00:04:32.126Z,17.7
2016-08-14T00:04:46.239Z,17.5
2016-08-14T00:05:01.102Z,17.6
2016-08-14T00:05:15.232Z,17.6
2016-08-14T00:05:30.111Z,17.6
2016-08-14T00:05:43.476Z,17.5
2016-08-14T00:05:56.855Z,17.6
2016-08-14T00:06:10.220Z,17.5
2016-08-14T00:06:24.335Z,17.5
2016-08-14T00:06:36.219Z,17.7
2016-08-14T00:06:48.838Z,17.6
2016-08-14T00:07:02.947Z,17.6
2016-08-14T00:07:14.088Z,17.5
2016-08-14T00:07:28.959Z,17.6
2016-08-14T00:07:41.573Z,17.5
2016-08-14T00:07:54.945Z,17.5
2016-08-14T00:08:08.353Z,17.6
2016-08-14T00:08:20.969Z,17.5
2016-08-14T00:08:35.098Z,17.5
2016-08-14T00:08:47.712Z,17.6
2016-08-14T00:09:01.835Z,17.5
2016-08-14T00:09:14.454Z,17.5
2016-08-14T00:09:28.568Z,17.6
2016-08-14T00:09:43.433Z,17.5
2016-08-14T00:09:58.325Z,17.5
2016-08-14T00:10:10.970Z,17.6
2016-08-14T00:10:25.085Z,17.5
2016-08-14T00:10:37.728Z,17.4
2016-08-14T00:10:51.083Z,17.5
2016-08-14T00:11:05.958Z,17.4
2016-08-14T00:11:20.105Z,17.3
2016-08-14T00:11:31.963Z,17.5
2016-08-14T00:11:46.082Z,17.5
2016-08-14T00:11:58.687Z,17.6
2016-08-14T00:12:12.136Z,17.5
2016-08-14T00:12:25.502Z,17.4
2016-08-14T00:12:38.144Z,17.4
2016-08-14T00:12:51.531Z,17.3
2016-08-14T00:13:04.133Z,17.4
2016-08-14T00:13:16.011Z,17.3
2016-08-14T00:13:30.155Z,17.4
2016-08-14T00:13:42.772Z,17.4
2016-08-14T00:13:56.128Z,17.4
2016-08-14T00:14:07.992Z,17.5
2016-08-14T00:14:20.611Z,17.5
2016-08-14T00:14:34.754Z,17.6
2016-08-14T00:14:47.368Z,17.4
2016-08-14T00:15:00.735Z,17.5
2016-08-14T00:15:12.618Z,17.5
2016-08-14T00:15:27.547Z,17.6
2016-08-14T00:15:41.659Z,17.5
2016-08-14T00:15:55.794Z,17.6
2016-08-14T00:16:11.408Z,17.6
2016-08-14T00:16:24.048Z,17.5
2016-08-14T00:16:38.166Z,17.5
2016-08-14T00:16:53.037Z,17.5
2016-08-14T00:17:07.893Z,17.3
2016-08-14T00:17:20.530Z,17.4
2016-08-14T00:17:33.155Z,17.2
2016-08-14T00:17:48.768Z,17.2
2016-08-14T00:18:02.128Z,17.3
2016-08-14T00:18:17.057Z,17.2
2016-08-14T00:18:31.182Z,17.3
2016-08-14T00:18:43.047Z,17.3
2016-08-14T00:18:55.667Z,17.3
2016-08-14T00:19:09.046Z,17.3
2016-08-14T00:19:23.160Z,17.4
2016-08-14T00:19:35.766Z,17.3
2016-08-14T00:19:49.889Z,17.3
2016-08-14T00:20:04.009Z,17.2
2016-08-14T00:20:18.889Z,17.4
2016-08-14T00:20:31.521Z,17.4
2016-08-14T00:20:43.452Z,17.4
2016-08-14T00:20:55.314Z,17.3
2016-08-14T00:21:10.190Z,17.5
2016-08-14T00:21:25.064Z,17.5
2016-08-14T00:21:35.435Z,17.5
2016-08-14T00:21:49.545Z,17.5
2016-08-14T00:22:02.933Z,17.5
2016-08-14T00:22:17.820Z,17.6
2016-08-14T00:22:28.945Z,17.6
2016-08-14T00:22:43.062Z,17.6
2016-08-14T00:22:57.200Z,17.6
2016-08-14T00:23:09.819Z,17.6
2016-08-14T00:23:23.187Z,17.6
2016-08-14T00:23:37.337Z,17.6
2016-08-14T00:23:50.708Z,17.6
2016-08-14T00:24:00.687Z,17.7
2016-08-14T00:24:13.300Z,17.7
2016-08-14T00:24:25.934Z,17.7
2016-08-14T00:24:38.563Z,17.7
2016-08-14T00:24:51.200Z,17.7
2016-08-14T00:25:06.076Z,17.7
2016-08-14T00:25:20.193Z,17.7
2016-08-14T00:25:33.589Z,17.8
2016-08-14T00:25:46.943Z,17.8
2016-08-14T00:26:01.090Z,17.8
2016-08-14T00:26:14.488Z,17.8
2016-08-14T00:26:27.090Z,17.8
2016-08-14T00:26:39.727Z,17.7
2016-08-14T00:26:50.099Z,17.7
2016-08-14T00:27:04.217Z,17.8
2016-08-14T00:27:16.084Z,17.8
2016-08-14T00:27:29.465Z,17.8
2016-08-14T00:27:44.328Z,17.7
2016-08-14T00:27:54.703Z,17.9
2016-08-14T00:28:08.102Z,17.8
2016-08-14T00:28:20.726Z,17.8
2016-08-14T00:28:33.341Z,17.8
2016-08-14T00:28:45.973Z,17.8
2016-08-14T00:28:58.620Z,17.8
2016-08-14T00:29:13.507Z,17.8
2016-08-14T00:29:26.882Z,17.8
2016-08-14T00:29:41.010Z,17.8
2016-08-14T00:29:54.401Z,17.9
2016-08-14T00:30:05.520Z,17.9
2016-08-14T00:30:17.374Z,17.9
2016-08-14T00:30:32.246Z,17.9
2016-08-14T00:30:45.613Z,17.9
2016-08-14T00:31:01.240Z,17.9
2016-08-14T00:31:13.106Z,17.9
2016-08-14T00:31:26.475Z,17.8
2016-08-14T00:31:40.590Z,17.7
2016-08-14T00:31:54.719Z,17.8
2016-08-14T00:32:08.107Z,17.8
2016-08-14T00:32:22.216Z,17.9
2016-08-14T00:32:37.079Z,17.9
2016-08-14T00:32:51.203Z,17.8
2016-08-14T00:33:06.079Z,17.9
2016-08-14T00:33:19.469Z,17.8
2016-08-14T00:33:33.602Z,17.9
2016-08-14T00:33:49.227Z,17.8
2016-08-14T00:34:04.099Z,17.9
2016-08-14T00:34:18.220Z,17.9
2016-08-14T00:34:32.330Z,17.9
2016-08-14T00:34:47.189Z,18
2016-08-14T00:34:59.825Z,17.9
2016-08-14T00:35:14.713Z,17.9
2016-08-14T00:35:28.819Z,17.9
2016-08-14T00:35:39.203Z,18
2016-08-14T00:35:54.071Z,18
2016-08-14T00:36:05.941Z,17.9
2016-08-14T00:36:20.082Z,17.8
2016-08-14T00:36:31.209Z,17.8
2016-08-14T00:36:43.117Z,17.8
2016-08-14T00:36:57.240Z,17.9
2016-08-14T00:37:08.373Z,17.8
2016-08-14T00:37:23.253Z,17.8
2016-08-14T00:37:36.613Z,17.9
2016-08-14T00:37:48.477Z,17.9
2016-08-14T00:38:02.596Z,17.8
2016-08-14T00:38:15.966Z,17.7
2016-08-14T00:38:30.833Z,17.7
2016-08-14T00:38:45.716Z,17.6
2016-08-14T00:39:00.589Z,17.6
2016-08-14T00:39:13.973Z,17.6
2016-08-14T00:39:28.850Z,17.6
2016-08-14T00:39:41.460Z,17.5
2016-08-14T00:39:53.317Z,17.6
2016-08-14T00:40:05.927Z,17.6
2016-08-14T00:40:19.294Z,17.6
2016-08-14T00:40:32.650Z,17.6
2016-08-14T00:40:47.504Z,17.6
2016-08-14T00:41:00.896Z,17.7
2016-08-14T00:41:13.556Z,17.7
2016-08-14T00:41:26.195Z,17.8
2016-08-14T00:41:40.330Z,17.8
2016-08-14T00:41:53.732Z,17.8
2016-08-14T00:42:07.881Z,17.8
2016-08-14T00:42:18.976Z,17.9
2016-08-14T00:42:32.344Z,17.9
2016-08-14T00:42:45.713Z,17.9
2016-08-14T00:43:00.576Z,17.9
2016-08-14T00:43:13.182Z,17.9
2016-08-14T00:43:25.055Z,17.9
2016-08-14T00:43:39.924Z,18
2016-08-14T00:43:53.282Z,18
2016-08-14T00:44:06.874Z,17.9
2016-08-14T00:44:20.996Z,17.9
2016-08-14T00:44:34.393Z,18
2016-08-14T00:44:46.271Z,17.9
2016-08-14T00:44:59.643Z,17.9
2016-08-14T00:45:13.002Z,17.9
2016-08-14T00:45:27.129Z,18.1
2016-08-14T00:45:38.247Z,18.1
2016-08-14T00:45:51.630Z,18
2016-08-14T00:46:04.261Z,18.1
2016-08-14T00:46:16.898Z,18.1
2016-08-14T00:46:30.266Z,18.1
2016-08-14T00:46:45.131Z,18.1
2016-08-14T00:46:58.492Z,18.1
2016-08-14T00:47:11.862Z,18
2016-08-14T00:47:23.728Z,18.1
2016-08-14T00:47:37.087Z,18.1
2016-08-14T00:47:51.217Z,18
2016-08-14T00:48:06.080Z,18.1
2016-08-14T00:48:19.465Z,18.1
2016-08-14T00:48:34.335Z,18.2
2016-08-14T00:48:47.731Z,18.1
2016-08-14T00:49:01.094Z,18.1
2016-08-14T00:49:15.209Z,18.1
2016-08-14T00:49:28.586Z,18.2
2016-08-14T00:49:41.946Z,18.1
2016-08-14T00:49:56.068Z,18
2016-08-14T00:50:10.938Z,18.1
2016-08-14T00:50:23.578Z,18.1
2016-08-14T00:50:36.982Z,18.1
2016-08-14T00:50:51.111Z,18
2016-08-14T00:51:05.226Z,18.1
2016-08-14T00:51:19.345Z,18
2016-08-14T00:51:32.708Z,18
2016-08-14T00:51:46.061Z,17.9
2016-08-14T00:52:00.181Z,18
2016-08-14T00:52:13.545Z,18
2016-08-14T00:52:26.944Z,18
2016-08-14T00:52:41.077Z,18
2016-08-14T00:52:55.228Z,18
2016-08-14T00:53:07.862Z,17.9
2016-08-14T00:53:20.510Z,17.9
2016-08-14T00:53:31.643Z,17.8
2016-08-14T00:53:46.518Z,17.8
2016-08-14T00:54:01.398Z,17.8
2016-08-14T00:54:15.541Z,17.9
2016-08-14T00:54:27.405Z,17.8
2016-08-14T00:54:40.042Z,17.9
2016-08-14T00:54:53.438Z,17.9
2016-08-14T00:55:08.323Z,17.8
2016-08-14T00:55:20.212Z,17.7
2016-08-14T00:55:33.576Z,17.8
2016-08-14T00:55:46.949Z,17.8
2016-08-14T00:55:59.576Z,17.8
2016-08-14T00:56:11.463Z,17.9
2016-08-14T00:56:25.575Z,17.9
2016-08-14T00:56:37.433Z,18
2016-08-14T00:56:50.793Z,18
2016-08-14T00:57:03.419Z,18
2016-08-14T00:57:17.539Z,18
2016-08-14T00:57:32.419Z,18
2016-08-14T00:57:45.811Z,18
2016-08-14T00:58:00.708Z,18
2016-08-14T00:58:14.089Z,18
2016-08-14T00:58:27.469Z,18.1
2016-08-14T00:58:40.878Z,18
2016-08-14T00:58:55.015Z,18
2016-08-14T00:59:07.643Z,18
2016-08-14T00:59:20.265Z,18
2016-08-14T00:59:34.375Z,18
2016-08-14T00:59:47.019Z,18.1
2016-08-14T01:00:01.156Z,18.1
2016-08-14T01:00:14.538Z,18
2016-08-14T01:00:29.411Z,18.1
2016-08-14T01:00:43.542Z,18
2016-08-14T01:00:56.932Z,18.1
2016-08-14T01:01:11.090Z,18.1
2016-08-14T01:01:24.459Z,18.1
2016-08-14T01:01:37.840Z,18
2016-08-14T01:01:52.717Z,18.2
2016-08-14T01:02:05.310Z,18.1
2016-08-14T01:02:19.415Z,18.2
2016-08-14T01:02:32.801Z,18.2
2016-08-14T01:02:46.180Z,18.1
2016-08-14T01:02:57.306Z,18.2
2016-08-14T01:03:11.437Z,18.1
2016-08-14T01:03:24.051Z,18.1
2016-08-14T01:03:37.424Z,18.2
2016-08-14T01:03:50.793Z,18.1
2016-08-14T01:04:04.905Z,18.1
2016-08-14T01:04:20.529Z,18.1
2016-08-14T01:04:33.171Z,18.2
2016-08-14T01:04:47.310Z,18.2
2016-08-14T01:04:59.922Z,18.2
2016-08-14T01:05:13.284Z,18.1
2016-08-14T01:05:25.891Z,18.2
2016-08-14T01:05:40.019Z,18.2
2016-08-14T01:05:54.133Z,18.1
2016-08-14T01:06:06.776Z,18.2
2016-08-14T01:06:19.392Z,18.1
2016-08-14T01:06:32.003Z,18.2
2016-08-14T01:06:46.120Z,18.2
2016-08-14T01:06:58.759Z,18.2
2016-08-14T01:07:12.117Z,18.3
2016-08-14T01:07:23.977Z,18.2
2016-08-14T01:07:37.347Z,18.1
2016-08-14T01:07:51.466Z,18.2
2016-08-14T01:08:05.582Z,18.2
2016-08-14T01:08:18.194Z,18.2
2016-08-14T01:08:30.060Z,18.2
2016-08-14T01:08:42.691Z,18.3
2016-08-14T01:08:57.565Z,18.3
2016-08-14T01:09:10.183Z,18.2
2016-08-14T01:09:23.617Z,18.2
2016-08-14T01:09:37.744Z,18.3
2016-08-14T01:09:51.883Z,18.3
2016-08-14T01:10:07.508Z,18.2
2016-08-14T01:10:19.389Z,18.2
2016-08-14T01:10:33.505Z,18.2
2016-08-14T01:10:45.411Z,18.2
2016-08-14T01:10:59.526Z,18.3
2016-08-14T01:11:12.892Z,18.2
2016-08-14T01:11:27.769Z,18.3
2016-08-14T01:11:42.633Z,18.2
2016-08-14T01:11:58.253Z,18.1
2016-08-14T01:12:12.368Z,18.2
2016-08-14T01:12:23.494Z,18.1
2016-08-14T01:12:36.856Z,18.1
2016-08-14T01:12:52.479Z,18.2
2016-08-14T01:13:05.092Z,18.1
2016-08-14T01:13:19.213Z,18.2
2016-08-14T01:13:32.611Z,18.1
2016-08-14T01:13:46.730Z,18.2
2016-08-14T01:14:00.859Z,18.1
2016-08-14T01:14:14.214Z,18.1
2016-08-14T01:14:28.345Z,18.1
2016-08-14T01:14:41.726Z,18
2016-08-14T01:14:55.143Z,18
2016-08-14T01:15:09.256Z,18
2016-08-14T01:15:21.867Z,18.1
2016-08-14T01:15:36.739Z,18
2016-08-14T01:15:49.349Z,18.1
2016-08-14T01:16:03.472Z,18.2
2016-08-14T01:16:16.087Z,18.3
2016-08-14T01:16:28.689Z,18.2
2016-08-14T01:16:43.581Z,18.2
2016-08-14T01:16:56.219Z,18.3
2016-08-14T01:17:08.085Z,18.2
2016-08-14T01:17:23.718Z,18.2
2016-08-14T01:17:36.355Z,18.2
2016-08-14T01:17:49.000Z,18.2
2016-08-14T01:18:03.866Z,18.2
2016-08-14T01:18:17.239Z,18.2
2016-08-14T01:18:28.346Z,18.2
2016-08-14T01:18:42.477Z,18.2
2016-08-14T01:18:54.340Z,18.2
2016-08-14T01:19:06.970Z,18.2
2016-08-14T01:19:19.609Z,18.2
2016-08-14T01:19:34.492Z,18.3
2016-08-14T01:19:47.874Z,18.2
2016-08-14T01:20:02.751Z,18.2
2016-08-14T01:20:16.148Z,18.2
2016-08-14T01:20:29.530Z,18.3
2016-08-14T01:20:43.630Z,18.2
2016-08-14T01:20:56.250Z,18.2
2016-08-14T01:21:08.108Z,18.2
2016-08-14T01:21:20.739Z,18.2
2016-08-14T01:21:34.099Z,18.1
2016-08-14T01:21:48.225Z,18.2
2016-08-14T01:22:00.858Z,18.1
2016-08-14T01:22:14.977Z,18.1
2016-08-14T01:22:28.375Z,18.1
2016-08-14T01:22:43.238Z,18.2
2016-08-14T01:22:56.608Z,18.1
2016-08-14T01:23:09.981Z,18.1
2016-08-14T01:23:24.855Z,18
2016-08-14T01:23:40.470Z,18
2016-08-14T01:23:54.612Z,18
2016-08-14T01:24:10.225Z,18.1
2016-08-14T01:24:25.101Z,17.9
2016-08-14T01:24:37.717Z,17.9
2016-08-14T01:24:52.583Z,17.9
2016-08-14T01:25:05.979Z,17.9
2016-08-14T01:25:20.858Z,17.9
2016-08-14T01:25:34.218Z,17.9
2016-08-14T01:25:45.344Z,17.9
2016-08-14T01:25:59.507Z,18
2016-08-14T01:26:14.385Z,18
2016-08-14T01:26:29.249Z,18
2016-08-14T01:26:43.372Z,17.9
2016-08-14T01:26:56.009Z,17.9
2016-08-14T01:27:07.866Z,17.9
2016-08-14T01:27:21.982Z,18
2016-08-14T01:27:35.351Z,17.8
2016-08-14T01:27:47.958Z,17.9
2016-08-14T01:28:02.827Z,17.8
2016-08-14T01:28:15.455Z,17.8
2016-08-14T01:28:29.577Z,17.9
2016-08-14T01:28:43.688Z,17.8
2016-08-14T01:28:55.546Z,18
2016-08-14T01:29:08.909Z,17.9
2016-08-14T01:29:21.520Z,17.8
2016-08-14T01:29:34.883Z,17.8
2016-08-14T01:29:49.758Z,17.8
2016-08-14T01:30:02.388Z,17.7
2016-08-14T01:30:14.268Z,17.8
2016-08-14T01:30:28.397Z,17.9
2016-08-14T01:30:39.539Z,17.8
2016-08-14T01:30:52.168Z,17.9
2016-08-14T01:31:07.795Z,17.9
2016-08-14T01:31:21.152Z,17.8
2016-08-14T01:31:32.296Z,17.8
2016-08-14T01:31:46.409Z,17.9
2016-08-14T01:32:00.532Z,17.8
2016-08-14T01:32:13.932Z,17.8
2016-08-14T01:32:25.791Z,17.8
2016-08-14T01:32:39.909Z,17.9
2016-08-14T01:32:51.770Z,17.9
2016-08-14T01:33:05.890Z,17.9
2016-08-14T01:33:20.025Z,17.9
2016-08-14T01:33:34.905Z,18
2016-08-14T01:33:49.053Z,18
2016-08-14T01:34:02.425Z,17.9
2016-08-14T01:34:15.052Z,17.8
2016-08-14T01:34:26.183Z,17.9
2016-08-14T01:34:38.828Z,17.9
2016-08-14T01:34:51.470Z,17.9
2016-08-14T01:35:06.337Z,17.8
2016-08-14T01:35:21.212Z,17.8
2016-08-14T01:35:33.861Z,17.8
2016-08-14T01:35:48.730Z,17.6
2016-08-14T01:36:02.848Z,17.6
2016-08-14T01:36:16.958Z,17.6
2016-08-14T01:36:32.587Z,17.6
2016-08-14T01:36:46.717Z,17.7
2016-08-14T01:37:01.600Z,17.7
2016-08-14T01:37:14.205Z,17.6
2016-08-14T01:37:26.835Z,17.6
2016-08-14T01:37:40.223Z,17.6
2016-08-14T01:37:52.084Z,17.6
2016-08-14T01:38:02.466Z,17.6
2016-08-14T01:38:16.577Z,17.7
2016-08-14T01:38:31.446Z,17.7
2016-08-14T01:38:46.327Z,17.8
2016-08-14T01:38:59.688Z,17.8
2016-08-14T01:39:15.324Z,17.8
2016-08-14T01:39:27.940Z,17.8
2016-08-14T01:39:41.304Z,17.8
2016-08-14T01:39:53.924Z,17.9
2016-08-14T01:40:08.782Z,17.9
2016-08-14T01:40:22.166Z,17.9
2016-08-14T01:40:34.025Z,17.8
2016-08-14T01:40:48.157Z,17.8
2016-08-14T01:41:02.280Z,17.8
2016-08-14T01:41:17.892Z,17.8
2016-08-14T01:41:29.771Z,17.8
2016-08-14T01:41:43.149Z,17.9
2016-08-14T01:41:55.763Z,17.9
2016-08-14T01:42:09.124Z,17.7
2016-08-14T01:42:20.259Z,17.8
2016-08-14T01:42:35.138Z,17.8
2016-08-14T01:42:50.015Z,17.8
2016-08-14T01:43:02.644Z,17.8
2016-08-14T01:43:14.526Z,17.7
2016-08-14T01:43:27.912Z,17.7
2016-08-14T01:43:40.526Z,17.7
2016-08-14T01:43:52.382Z,17.8
2016-08-14T01:44:03.502Z,17.7
2016-08-14T01:44:15.379Z,17.8
2016-08-14T01:44:27.995Z,17.9
2016-08-14T01:44:41.357Z,17.9
2016-08-14T01:44:56.973Z,17.9
2016-08-14T01:45:11.101Z,17.9
2016-08-14T01:45:25.955Z,17.9
2016-08-14T01:45:39.317Z,17.9
2016-08-14T01:45:52.682Z,17.8
2016-08-14T01:46:05.319Z,17.8
2016-08-14T01:46:18.701Z,17.9
2016-08-14T01:46:32.089Z,17.9
2016-08-14T01:46:44.708Z,17.7
2016-08-14T01:46:58.081Z,17.7
2016-08-14T01:47:12.192Z,17.6
2016-08-14T01:47:25.563Z,17.6
2016-08-14T01:47:36.675Z,17.5
2016-08-14T01:47:50.782Z,17.5
2016-08-14T01:48:04.895Z,17.5
2016-08-14T01:48:19.792Z,17.6
2016-08-14T01:48:34.667Z,17.5
2016-08-14T01:48:48.804Z,17.5
2016-08-14T01:49:02.164Z,17.5
2016-08-14T01:49:16.291Z,17.6
2016-08-14T01:49:30.406Z,17.6
2016-08-14T01:49:43.770Z,17.6
2016-08-14T01:49:57.155Z,17.6
2016-08-14T01:50:12.045Z,17.5
2016-08-14T01:50:24.665Z,17.6
2016-08-14T01:50:39.543Z,17.5
2016-08-14T01:50:52.170Z,17.6
2016-08-14T01:51:05.537Z,17.6
2016-08-14T01:51:18.935Z,17.5
2016-08-14T01:51:33.807Z,17.6
2016-08-14T01:51:45.696Z,17.6
2016-08-14T01:51:59.096Z,17.6
2016-08-14T01:52:13.207Z,17.7
2016-08-14T01:52:25.818Z,17.7
2016-08-14T01:52:38.447Z,17.8
2016-08-14T01:52:51.833Z,17.7
2016-08-14T01:53:02.947Z,17.9
2016-08-14T01:53:15.596Z,17.8
2016-08-14T01:53:28.956Z,17.8
2016-08-14T01:53:43.830Z,17.8
2016-08-14T01:53:57.946Z,17.8
2016-08-14T01:54:09.065Z,17.8
2016-08-14T01:54:21.709Z,17.8
2016-08-14T01:54:34.317Z,17.9
2016-08-14T01:54:48.449Z,17.9
2016-08-14T01:55:02.566Z,17.9
2016-08-14T01:55:15.215Z,17.9
2016-08-14T01:55:27.079Z,18
2016-08-14T01:55:41.939Z,17.9
2016-08-14T01:55:56.816Z,18
2016-08-14T01:56:10.177Z,17.9
2016-08-14T01:56:25.045Z,18
2016-08-14T01:56:38.427Z,17.9
2016-08-14T01:56:51.795Z,17.9
2016-08-14T01:57:05.156Z,17.9
2016-08-14T01:57:19.289Z,18
2016-08-14T01:57:34.909Z,17.9
2016-08-14T01:57:47.521Z,17.9
2016-08-14T01:58:00.886Z,18
2016-08-14T01:58:15.018Z,17.9
2016-08-14T01:58:29.137Z,18
2016-08-14T01:58:42.510Z,18
2016-08-14T01:58:57.374Z,17.9
2016-08-14T01:59:11.507Z,18
2016-08-14T01:59:24.902Z,17.9
2016-08-14T01:59:37.522Z,18
2016-08-14T01:59:51.642Z,17.9
2016-08-14T02:00:06.509Z,17.9
2016-08-14T02:00:19.127Z,17.9
2016-08-14T02:00:33.245Z,18
2016-08-14T02:00:46.607Z,18
2016-08-14T02:00:59.955Z,18
2016-08-14T02:01:14.067Z,18
2016-08-14T02:01:26.674Z,17.9
2016-08-14T02:01:37.810Z,18
2016-08-14T02:01:50.472Z,18
2016-08-14T02:02:05.344Z,18.1
2016-08-14T02:02:18.701Z,18
2016-08-14T02:02:31.341Z,17.9
2016-08-14T02:02:46.959Z,18
2016-08-14T02:03:00.318Z,17.9
2016-08-14T02:03:11.422Z,17.9
2016-08-14T02:03:24.045Z,17.9
2016-08-14T02:03:36.676Z,17.9
2016-08-14T02:03:49.279Z,17.8
2016-08-14T02:04:01.909Z,17.8
2016-08-14T02:04:16.776Z,17.7
2016-08-14T02:04:30.909Z,17.7
2016-08-14T02:04:44.274Z,17.8
2016-08-14T02:04:58.390Z,17.8
2016-08-14T02:05:11.777Z,17.9
2016-08-14T02:05:25.884Z,17.9
2016-08-14T02:05:39.260Z,17.9
2016-08-14T02:05:52.621Z,17.9
2016-08-14T02:06:06.736Z,17.9
2016-08-14T02:06:20.093Z,17.9
2016-08-14T02:06:34.978Z,17.9
2016-08-14T02:06:49.836Z,17.9
2016-08-14T02:07:03.193Z,17.9
2016-08-14T02:07:16.559Z,17.9
2016-08-14T02:07:28.453Z,17.9
2016-08-14T02:07:41.054Z,17.9
2016-08-14T02:07:56.668Z,17.8
2016-08-14T02:08:11.534Z,17.9
2016-08-14T02:08:26.379Z,17.9
2016-08-14T02:08:39.739Z,17.9
2016-08-14T02:08:51.614Z,17.9
2016-08-14T02:09:05.006Z,17.9
2016-08-14T02:09:18.375Z,17.9
2016-08-14T02:09:34.004Z,17.9
2016-08-14T02:09:48.124Z,18
2016-08-14T02:10:02.985Z,18
2016-08-14T02:10:16.395Z,17.9
2016-08-14T02:10:29.020Z,17.9
2016-08-14T02:10:43.146Z,17.9
2016-08-14T02:10:58.008Z,17.8
2016-08-14T02:11:10.660Z,17.8
2016-08-14T02:11:24.033Z,17.8
2016-08-14T02:11:38.148Z,17.8
2016-08-14T02:11:50.013Z,17.8
2016-08-14T02:12:01.886Z,17.8
2016-08-14T02:12:16.027Z,17.7
2016-08-14T02:12:29.388Z,17.8
2016-08-14T02:12:44.250Z,17.9
2016-08-14T02:12:57.609Z,17.9
2016-08-14T02:13:08.749Z,17.8
2016-08-14T02:13:22.868Z,17.9
2016-08-14T02:13:36.985Z,18
2016-08-14T02:13:52.600Z,17.9
2016-08-14T02:14:05.974Z,17.8
2016-08-14T02:14:18.613Z,17.8
2016-08-14T02:14:33.492Z,17.8
2016-08-14T02:14:47.621Z,17.7
2016-08-14T02:15:01.019Z,17.8
2016-08-14T02:15:13.636Z,17.7
2016-08-14T02:15:25.496Z,17.7
2016-08-14T02:15:40.366Z,17.8
2016-08-14T02:15:53.725Z,17.8
2016-08-14T02:16:07.843Z,17.8
2016-08-14T02:16:18.963Z,17.7
2016-08-14T02:16:32.330Z,17.7
2016-08-14T02:16:45.687Z,17.6
2016-08-14T02:16:59.066Z,17.7
2016-08-14T02:17:13.187Z,17.6
2016-08-14T02:17:27.296Z,17.6
2016-08-14T02:17:39.186Z,17.6
2016-08-14T02:17:52.556Z,17.7
2016-08-14T02:18:05.956Z,17.7
2016-08-14T02:18:19.341Z,17.6
2016-08-14T02:18:32.714Z,17.7
2016-08-14T02:18:46.104Z,17.7
2016-08-14T02:19:00.214Z,17.8
2016-08-14T02:19:12.841Z,17.9
2016-08-14T02:19:27.717Z,17.8
2016-08-14T02:19:42.577Z,17.8
2016-08-14T02:19:58.189Z,17.8
2016-08-14T02:20:11.574Z,17.9
2016-08-14T02:20:26.432Z,17.9
2016-08-14T02:20:39.040Z,17.9
2016-08-14T02:20:51.652Z,17.9
2016-08-14T02:21:05.768Z,17.9
2016-08-14T02:21:20.627Z,18
2016-08-14T02:21:32.495Z,18.1
2016-08-14T02:21:47.361Z,18
2016-08-14T02:22:00.717Z,18
2016-08-14T02:22:15.590Z,18
2016-08-14T02:22:28.985Z,18
2016-08-14T02:22:41.623Z,18
2016-08-14T02:22:54.255Z,18.1
2016-08-14T02:23:08.392Z,18
2016-08-14T02:23:23.262Z,18
2016-08-14T02:23:35.116Z,18.1
2016-08-14T02:23:48.506Z,18.1
2016-08-14T02:24:03.368Z,18.1
2016-08-14T02:24:17.498Z,18.1
2016-08-14T02:24:29.373Z,18.1
2016-08-14T02:24:42.733Z,18.1
2016-08-14T02:24:54.591Z,18.1
2016-08-14T02:25:07.953Z,18.2
2016-08-14T02:25:22.086Z,18.2
2016-08-14T02:25:35.472Z,18
2016-08-14T02:25:47.353Z,18.1
2016-08-14T02:26:01.484Z,18.2
2016-08-14T02:26:14.844Z,18.2
2016-08-14T02:26:28.973Z,18.1
2016-08-14T02:26:43.080Z,18.1
2016-08-14T02:26:56.435Z,18.1
2016-08-14T02:27:08.312Z,18.1
2016-08-14T02:27:21.683Z,18.2
2016-08-14T02:27:35.082Z,18.2
2016-08-14T02:27:47.694Z,18.1
2016-08-14T02:27:59.582Z,18.1
2016-08-14T02:28:12.970Z,18.1
2016-08-14T02:28:25.584Z,18.1
2016-08-14T02:28:39.706Z,18
2016-08-14T02:28:53.066Z,18
2016-08-14T02:29:04.932Z,18
2016-08-14T02:29:19.809Z,17.9
2016-08-14T02:29:33.182Z,18.1
2016-08-14T02:29:48.795Z,18
2016-08-14T02:30:02.908Z,18
2016-08-14T02:30:16.291Z,17.9
2016-08-14T02:30:29.672Z,17.9
2016-08-14T02:30:43.796Z,17.9
2016-08-14T02:30:54.945Z,18
2016-08-14T02:31:09.071Z,18
2016-08-14T02:31:22.448Z,18.1
2016-08-14T02:31:34.315Z,18.1
2016-08-14T02:31:47.682Z,18.2
2016-08-14T02:32:02.549Z,18.1
2016-08-14T02:32:16.688Z,18.1
2016-08-14T02:32:28.569Z,18.2
2016-08-14T02:32:38.935Z,18.1
2016-08-14T02:32:52.319Z,18.1
2016-08-14T02:33:04.961Z,18.2
2016-08-14T02:33:17.581Z,18.1
2016-08-14T02:33:30.216Z,18.1
2016-08-14T02:33:43.579Z,18.2
2016-08-14T02:33:55.468Z,18.2
2016-08-14T02:34:06.593Z,18.3
2016-08-14T02:34:20.738Z,18.1
2016-08-14T02:34:35.603Z,18.2
2016-08-14T02:34:48.960Z,18
2016-08-14T02:35:04.577Z,18.1
2016-08-14T02:35:17.193Z,18
2016-08-14T02:35:32.055Z,18
2016-08-14T02:35:46.910Z,18.1
2016-08-14T02:36:01.031Z,18.1
2016-08-14T02:36:15.147Z,18.2
2016-08-14T02:36:27.763Z,18.2
2016-08-14T02:36:41.112Z,18.1
2016-08-14T02:36:53.733Z,18.2
2016-08-14T02:37:07.866Z,18.2
2016-08-14T02:37:22.732Z,18.2
2016-08-14T02:37:36.123Z,18.2
2016-08-14T02:37:49.506Z,18.1
2016-08-14T02:38:02.886Z,18.2
2016-08-14T02:38:15.513Z,18.3
2016-08-14T02:38:26.617Z,18.2
2016-08-14T02:38:42.245Z,18.2
2016-08-14T02:38:54.128Z,18.2
2016-08-14T02:39:08.237Z,18.2
2016-08-14T02:39:23.118Z,18.3
2016-08-14T02:39:38.001Z,18.2
2016-08-14T02:39:50.617Z,18.3
2016-08-14T02:40:02.502Z,18.2
2016-08-14T02:40:16.612Z,18.2
2016-08-14T02:40:27.735Z,18.3
2016-08-14T02:40:42.620Z,18.2
2016-08-14T02:40:55.999Z,18.3
2016-08-14T02:41:10.872Z,18.3
2016-08-14T02:41:26.488Z,18.3
2016-08-14T02:41:39.850Z,18.3
2016-08-14T02:41:52.456Z,18.2
2016-08-14T02:42:04.347Z,18.3
2016-08-14T02:42:19.237Z,18.1
2016-08-14T02:42:34.855Z,18.2
2016-08-14T02:42:48.954Z,18.2
2016-08-14T02:43:01.566Z,18
2016-08-14T02:43:15.681Z,18.1
2016-08-14T02:43:29.811Z,18.2
2016-08-14T02:43:43.960Z,18.2
2016-08-14T02:43:55.076Z,18.2
2016-08-14T02:44:09.219Z,18.2
2016-08-14T02:44:23.339Z,18.2
2016-08-14T02:44:37.466Z,18.2
2016-08-14T02:44:51.633Z,18.2
2016-08-14T02:45:04.228Z,18.3
2016-08-14T02:45:19.100Z,18.3
2016-08-14T02:45:32.480Z,18.4
2016-08-14T02:45:45.098Z,18.4
2016-08-14T02:46:00.712Z,18.4
2016-08-14T02:46:14.836Z,18.5
2016-08-14T02:46:30.450Z,18.5
2016-08-14T02:46:43.828Z,18.5
2016-08-14T02:46:57.960Z,18.5
2016-08-14T02:47:10.598Z,18.4
2016-08-14T02:47:23.212Z,18.5
2016-08-14T02:47:36.578Z,18.5
2016-08-14T02:47:49.936Z,18.5
2016-08-14T02:48:04.053Z,18.5
2016-08-14T02:48:17.425Z,18.4
2016-08-14T02:48:29.308Z,18.5
2016-08-14T02:48:41.921Z,18.4
2016-08-14T02:48:54.529Z,18.4
2016-08-14T02:49:09.393Z,18.4
2016-08-14T02:49:22.760Z,18.3
2016-08-14T02:49:35.368Z,18.2
2016-08-14T02:49:50.232Z,18.3
2016-08-14T02:50:05.105Z,18.3
2016-08-14T02:50:18.476Z,18.3
2016-08-14T02:50:33.338Z,18.2
2016-08-14T02:50:47.492Z,18.3
2016-08-14T02:51:02.347Z,18.3
2016-08-14T02:51:17.217Z,18.3
2016-08-14T02:51:31.343Z,18.3
2016-08-14T02:51:43.201Z,18.2
2016-08-14T02:51:56.564Z,18.2
2016-08-14T02:52:11.439Z,18.2
2016-08-14T02:52:26.297Z,18.2
2016-08-14T02:52:41.156Z,18.2
2016-08-14T02:52:55.269Z,18.3
2016-08-14T02:53:08.637Z,18.2
2016-08-14T02:53:22.747Z,18.3
2016-08-14T02:53:34.635Z,18.3
2016-08-14T02:53:48.012Z,18.2
2016-08-14T02:54:02.137Z,18.3
2016-08-14T02:54:16.257Z,18.3
2016-08-14T02:54:28.878Z,18.3
2016-08-14T02:54:43.021Z,18.2
2016-08-14T02:54:55.653Z,18.2
2016-08-14T02:55:08.258Z,18.2
2016-08-14T02:55:22.380Z,18.2
2016-08-14T02:55:38.010Z,18.2
2016-08-14T02:55:52.130Z,18.1
2016-08-14T02:56:03.269Z,18.2
2016-08-14T02:56:16.637Z,18.2
2016-08-14T02:56:30.374Z,18.2
2016-08-14T02:56:43.742Z,18.2
2016-08-14T02:56:57.116Z,18.2
2016-08-14T02:57:11.233Z,18.2
2016-08-14T02:57:23.112Z,18.2
2016-08-14T02:57:35.736Z,18.2
2016-08-14T02:57:48.372Z,18.1
2016-08-14T02:58:02.500Z,18.2
2016-08-14T02:58:15.896Z,18.3
2016-08-14T02:58:30.019Z,18.3
2016-08-14T02:58:43.409Z,18.1
2016-08-14T02:58:57.535Z,18.2
2016-08-14T02:59:12.408Z,18.1
2016-08-14T02:59:27.276Z,18.1
2016-08-14T02:59:38.386Z,18.1
2016-08-14T02:59:52.530Z,18.2
2016-08-14T03:00:04.394Z,18.2
2016-08-14T03:00:17.033Z,18.2
2016-08-14T03:00:31.157Z,18.2
2016-08-14T03:00:45.282Z,18.2
2016-08-14T03:01:00.151Z,18.2